Time;durP1;ratioP1;P1;durP2;ratioP2;P2;SDS_P1;SDS_P2;PMS_P1;PMS_P2;Temp;Humidity;BMP_temperature;BMP_pressure;BME280_temperature;BME280_humidity;BME280_pressure;Samples;Min_cycle;Max_cycle;Signal;HPM_P1;HPM_P2
2023/08/30 00:00:06;;;;;;;0.93;0.40;;;21.00;94.50;;;;;;5010985;28;20022;-82
2023/08/30 00:02:32;;;;;;;2.95;0.70;;;21.00;94.80;;;;;;5010989;28;20053;-81
2023/08/30 00:04:59;;;;;;;1.00;0.45;;;21.00;94.70;;;;;;5012157;28;20061;-82
2023/08/30 00:07:25;;;;;;;0.77;0.40;;;21.00;94.70;;;;;;5004241;28;20351;-81
2023/08/30 00:09:51;;;;;;;0.30;0.30;;;21.00;94.70;;;;;;5011467;28;20081;-81
2023/08/30 00:12:16;;;;;;;0.47;0.40;;;21.00;94.70;;;;;;5010293;28;20030;-81
2023/08/30 00:14:42;;;;;;;0.20;0.20;;;21.00;94.80;;;;;;4996925;28;20037;-81
2023/08/30 00:17:08;;;;;;;2.45;0.82;;;21.00;94.70;;;;;;5012689;28;20014;-81
2023/08/30 00:19:34;;;;;;;1.25;0.40;;;20.90;94.90;;;;;;5006840;28;20034;-81
2023/08/30 00:22:00;;;;;;;1.10;0.50;;;20.90;94.80;;;;;;5010319;28;20022;-81
2023/08/30 00:24:26;;;;;;;1.52;0.50;;;21.00;94.80;;;;;;5019469;28;20462;-81
2023/08/30 00:26:51;;;;;;;1.83;0.73;;;21.00;94.90;;;;;;5014559;28;20018;-81
2023/08/30 00:29:17;;;;;;;0.90;0.57;;;21.00;94.90;;;;;;5014358;28;20133;-81
2023/08/30 00:31:43;;;;;;;2.03;0.57;;;21.00;95.10;;;;;;4997250;28;20122;-81
2023/08/30 00:34:08;;;;;;;2.72;0.80;;;21.00;95.20;;;;;;5013940;28;20438;-81
2023/08/30 00:36:34;;;;;;;1.50;0.60;;;21.00;95.20;;;;;;5028329;28;20072;-82
2023/08/30 00:39:00;;;;;;;1.63;0.50;;;21.00;95.10;;;;;;5020425;28;20038;-81
2023/08/30 00:41:25;;;;;;;1.17;0.52;;;21.00;95.20;;;;;;5014657;28;20030;-81
2023/08/30 00:43:51;;;;;;;1.23;0.50;;;21.00;95.20;;;;;;4994068;28;20109;-81
2023/08/30 00:46:17;;;;;;;3.78;0.57;;;21.00;95.10;;;;;;5008988;28;20106;-81
2023/08/30 00:48:44;;;;;;;1.95;0.65;;;21.00;95.10;;;;;;4992836;28;20082;-79
2023/08/30 00:51:09;;;;;;;1.35;0.40;;;21.00;95.10;;;;;;5002098;28;20037;-78
2023/08/30 00:53:35;;;;;;;0.75;0.38;;;21.00;95.20;;;;;;5015875;28;20025;-78
2023/08/30 00:56:02;;;;;;;0.90;0.50;;;21.00;95.00;;;;;;5007883;28;20046;-78
2023/08/30 00:58:28;;;;;;;1.55;0.57;;;21.00;95.10;;;;;;5014457;28;20378;-78
2023/08/30 01:00:54;;;;;;;1.35;0.60;;;21.00;95.10;;;;;;5011407;28;20066;-83
2023/08/30 01:03:22;;;;;;;1.15;0.50;;;20.90;95.10;;;;;;4998020;28;20036;-82
2023/08/30 01:05:48;;;;;;;1.85;0.45;;;21.00;95.10;;;;;;5013152;28;20092;-83
2023/08/30 01:08:14;;;;;;;2.42;0.47;;;20.90;95.10;;;;;;5008751;28;20026;-83
2023/08/30 01:10:57;;;;;;;5.32;0.50;;;20.90;94.90;;;;;;5013504;28;20394;-83
2023/08/30 01:13:27;;;;;;;1.92;0.55;;;20.90;94.90;;;;;;5012131;28;20032;-84
2023/08/30 01:15:54;;;;;;;;;;;20.90;94.90;;;;;;5013951;28;20038;-82
2023/08/30 01:18:21;;;;;;;4.53;0.50;;;20.90;95.00;;;;;;5010024;28;19909;-83
2023/08/30 01:20:48;;;;;;;0.85;0.50;;;20.90;94.90;;;;;;5004190;28;20106;-83
2023/08/30 01:23:14;;;;;;;1.85;0.60;;;21.00;95.00;;;;;;5010993;28;20099;-82
2023/08/30 01:26:09;;;;;;;1.63;0.60;;;21.00;95.10;;;;;;5011740;28;20030;-83
2023/08/30 01:28:37;;;;;;;0.60;0.30;;;21.00;95.10;;;;;;5023759;28;20541;-83
2023/08/30 01:31:04;;;;;;;1.45;0.50;;;21.00;95.00;;;;;;5016551;28;20037;-83
2023/08/30 01:33:31;;;;;;;3.47;0.70;;;21.10;95.00;;;;;;5004400;28;20026;-83
2023/08/30 01:35:59;;;;;;;0.80;0.40;;;21.10;94.90;;;;;;5010042;28;20047;-83
2023/08/30 01:38:27;;;;;;;3.28;0.68;;;21.10;94.80;;;;;;5015890;28;20478;-83
2023/08/30 01:40:54;;;;;;;1.40;0.45;;;21.10;94.80;;;;;;5012561;28;20029;-84
2023/08/30 01:43:21;;;;;;;0.77;0.50;;;21.10;94.90;;;;;;5012540;28;20559;-84
2023/08/30 01:45:47;;;;;;;1.35;0.40;;;21.10;95.00;;;;;;5021712;28;20045;-84
2023/08/30 01:48:18;;;;;;;0.82;0.22;;;21.10;94.90;;;;;;5020363;28;20470;-84
2023/08/30 01:50:44;;;;;;;0.63;0.30;;;21.00;94.70;;;;;;5014379;28;20041;-84
2023/08/30 01:53:14;;;;;;;1.02;0.40;;;21.00;94.40;;;;;;5013448;28;20374;-84
2023/08/30 01:55:40;;;;;;;2.35;0.70;;;20.90;94.50;;;;;;5008816;28;20070;-83
2023/08/30 01:58:07;;;;;;;0.50;0.30;;;20.70;94.30;;;;;;4996412;28;20022;-84
2023/08/30 02:00:32;;;;;;;0.90;0.32;;;20.70;94.60;;;;;;4992016;28;20494;-85
2023/08/30 02:02:58;;;;;;;1.17;0.40;;;20.70;94.70;;;;;;5013326;28;20142;-85
2023/08/30 02:05:24;;;;;;;0.88;0.45;;;20.60;94.60;;;;;;5018899;28;20172;-84
2023/08/30 02:08:19;;;;;;;2.30;0.28;;;20.60;94.70;;;;;;5018553;28;20014;-86
2023/08/30 02:10:59;;;;;;;0.75;0.30;;;20.60;94.70;;;;;;5014997;28;20068;-85
2023/08/30 02:13:27;;;;;;;2.53;0.65;;;20.60;94.60;;;;;;5017339;28;20440;-87
2023/08/30 02:15:56;;;;;;;1.95;0.50;;;20.50;94.80;;;;;;5004751;28;20034;-84
2023/08/30 02:18:23;;;;;;;1.20;0.57;;;20.50;94.80;;;;;;5002652;28;20101;-85
2023/08/30 02:20:49;;;;;;;2.78;0.55;;;20.50;95.00;;;;;;5013159;28;20605;-85
2023/08/30 02:23:15;;;;;;;1.67;0.40;;;20.50;94.90;;;;;;5024839;28;20146;-84
2023/08/30 02:25:40;;;;;;;1.35;0.50;;;20.50;95.00;;;;;;5026801;28;20025;-83
2023/08/30 02:28:06;;;;;;;1.05;0.40;;;20.40;95.00;;;;;;5027475;28;20049;-82
2023/08/30 02:30:32;;;;;;;1.25;0.55;;;20.30;95.00;;;;;;5019105;28;20029;-85
2023/08/30 02:32:58;;;;;;;0.85;0.43;;;20.20;95.20;;;;;;5008764;28;20037;-81
2023/08/30 02:35:23;;;;;;;2.35;0.50;;;20.20;95.30;;;;;;5007388;28;20044;-81
2023/08/30 02:37:49;;;;;;;0.60;0.30;;;20.20;95.20;;;;;;5016454;28;20037;-81
2023/08/30 02:40:15;;;;;;;0.75;0.32;;;20.10;95.10;;;;;;5003200;28;20036;-82
2023/08/30 02:42:40;;;;;;;1.23;0.57;;;20.10;95.30;;;;;;5011112;28;20061;-82
2023/08/30 02:45:06;;;;;;;2.08;0.50;;;20.10;95.30;;;;;;5019813;28;20467;-83
2023/08/30 02:47:32;;;;;;;3.88;0.60;;;20.10;95.40;;;;;;5019232;28;20089;-82
2023/08/30 02:49:58;;;;;;;1.08;0.40;;;20.10;95.40;;;;;;5034526;28;20071;-82
2023/08/30 02:52:23;;;;;;;0.43;0.40;;;20.00;95.30;;;;;;5022959;28;20100;-84
2023/08/30 02:54:49;;;;;;;2.58;0.70;;;20.00;95.50;;;;;;5015874;28;20022;-84
2023/08/30 02:57:15;;;;;;;1.08;0.32;;;20.00;95.40;;;;;;5008353;28;20042;-85
2023/08/30 02:59:40;;;;;;;0.98;0.40;;;19.90;95.40;;;;;;5011381;28;20532;-85
2023/08/30 03:02:06;;;;;;;3.03;0.50;;;19.80;95.50;;;;;;5028203;28;20038;-85
2023/08/30 03:04:38;;;;;;;0.75;0.40;;;19.70;95.60;;;;;;5066037;23;20470;-80
2023/08/30 03:07:04;;;;;;;0.80;0.60;;;19.70;96.00;;;;;;4993816;28;20076;-73
2023/08/30 03:09:29;;;;;;;1.92;0.60;;;19.70;96.00;;;;;;5003200;28;20057;-73
2023/08/30 03:11:55;;;;;;;0.90;0.30;;;19.70;96.00;;;;;;4996726;28;20030;-74
2023/08/30 03:14:21;;;;;;;0.80;0.40;;;19.80;96.00;;;;;;4995693;28;20034;-74
2023/08/30 03:16:47;;;;;;;1.35;0.55;;;19.80;95.80;;;;;;4998731;28;20026;-74
2023/08/30 03:19:13;;;;;;;0.52;0.20;;;19.80;95.90;;;;;;4999113;28;20037;-74
2023/08/30 03:21:38;;;;;;;0.50;0.40;;;19.90;95.90;;;;;;4996852;28;20026;-73
2023/08/30 03:24:05;;;;;;;2.15;0.57;;;19.90;95.70;;;;;;4996994;28;20141;-75
2023/08/30 03:26:30;;;;;;;1.67;0.70;;;19.90;95.60;;;;;;4996436;28;20459;-74
2023/08/30 03:28:56;;;;;;;1.30;0.47;;;19.80;95.70;;;;;;4995917;28;20027;-75
2023/08/30 03:31:22;;;;;;;1.67;0.57;;;19.70;95.60;;;;;;4995239;28;20450;-75
2023/08/30 03:33:49;;;;;;;0.77;0.13;;;19.70;95.70;;;;;;5002236;28;20036;-75
2023/08/30 03:36:16;;;;;;;0.70;0.40;;;19.70;95.70;;;;;;5003077;28;20351;-75
2023/08/30 03:38:43;;;;;;;2.53;0.70;;;19.70;95.70;;;;;;5001426;28;20096;-75
2023/08/30 03:41:10;;;;;;;1.38;0.40;;;19.80;95.80;;;;;;4999305;28;20026;-74
2023/08/30 03:43:36;;;;;;;0.82;0.30;;;19.70;95.60;;;;;;4994995;28;20030;-75
2023/08/30 03:46:05;;;;;;;1.45;0.30;;;19.80;95.70;;;;;;4994987;28;20108;-75
2023/08/30 03:48:32;;;;;;;0.98;0.30;;;19.80;95.60;;;;;;4977702;28;20026;-74
2023/08/30 03:50:58;;;;;;;1.25;0.30;;;19.90;95.60;;;;;;4997282;28;20027;-75
2023/08/30 03:53:24;;;;;;;0.45;0.20;;;19.90;95.60;;;;;;4983080;28;20050;-75
2023/08/30 03:55:50;;;;;;;0.93;0.50;;;20.00;95.50;;;;;;5006737;28;20175;-75
2023/08/30 03:58:18;;;;;;;2.08;0.68;;;20.00;95.50;;;;;;5007882;28;20112;-75
2023/08/30 04:00:44;;;;;;;0.68;0.30;;;20.10;95.50;;;;;;5003162;28;20033;-74
2023/08/30 04:03:10;;;;;;;0.85;0.30;;;20.10;95.40;;;;;;5001715;28;20403;-73
2023/08/30 04:05:38;;;;;;;1.58;0.40;;;20.00;95.40;;;;;;4998488;28;20379;-76
2023/08/30 04:08:05;;;;;;;0.85;0.20;;;20.00;95.50;;;;;;4998365;28;20117;-75
2023/08/30 04:10:38;;;;;;;0.50;0.30;;;20.00;95.60;;;;;;4976490;28;20015;-75
2023/08/30 04:13:05;;;;;;;2.22;0.32;;;20.00;95.70;;;;;;4993101;28;20041;-75
2023/08/30 04:15:38;;;;;;;3.70;0.50;;;20.00;95.70;;;;;;5001158;28;20045;-75
2023/08/30 04:18:06;;;;;;;0.90;0.30;;;20.00;95.80;;;;;;4996883;28;20042;-82
2023/08/30 04:20:32;;;;;;;0.90;0.57;;;20.00;95.80;;;;;;5004428;28;20029;-81
2023/08/30 04:23:01;;;;;;;0.65;0.30;;;20.00;95.90;;;;;;5003871;28;20025;-74
2023/08/30 04:25:27;;;;;;;2.55;0.50;;;20.00;96.00;;;;;;4994639;28;20566;-74
2023/08/30 04:27:53;;;;;;;1.70;0.32;;;20.00;96.00;;;;;;4999156;28;20518;-74
2023/08/30 04:30:18;;;;;;;0.35;0.30;;;20.00;95.90;;;;;;4996515;28;20037;-74
2023/08/30 04:32:44;;;;;;;1.25;0.30;;;20.00;95.90;;;;;;4994181;28;20370;-74
2023/08/30 04:35:10;;;;;;;2.97;0.45;;;20.00;95.80;;;;;;4997688;28;20466;-75
2023/08/30 04:37:37;;;;;;;1.00;0.52;;;20.00;95.90;;;;;;4994974;28;20408;-74
2023/08/30 04:40:04;;;;;;;1.80;0.50;;;20.00;95.90;;;;;;4995919;28;20117;-74
2023/08/30 04:42:30;;;;;;;0.75;0.40;;;20.00;95.70;;;;;;5005888;28;20041;-73
2023/08/30 04:44:56;;;;;;;0.73;0.43;;;20.00;95.80;;;;;;4994723;28;20015;-76
2023/08/30 04:47:22;;;;;;;5.68;0.80;;;20.00;95.70;;;;;;4994454;28;20030;-76
2023/08/30 04:49:51;;;;;;;0.40;0.32;;;20.00;95.40;;;;;;4996213;28;20015;-76
2023/08/30 04:52:17;;;;;;;0.52;0.38;;;19.90;95.70;;;;;;5000634;28;20030;-76
2023/08/30 04:54:45;;;;;;;1.35;0.50;;;19.90;95.80;;;;;;4996671;28;20026;-76
2023/08/30 04:57:14;;;;;;;1.23;0.70;;;19.90;95.80;;;;;;4986650;28;20061;-76
2023/08/30 04:59:40;;;;;;;2.38;0.50;;;19.90;95.80;;;;;;5000781;28;20026;-76
2023/08/30 05:02:06;;;;;;;2.03;0.40;;;19.80;95.80;;;;;;4996490;28;20206;-76
2023/08/30 05:04:31;;;;;;;2.92;0.40;;;19.90;95.80;;;;;;4997489;28;20553;-76
2023/08/30 05:06:57;;;;;;;0.80;0.43;;;19.90;95.60;;;;;;4997319;28;20083;-76
2023/08/30 05:09:24;;;;;;;1.85;0.40;;;19.90;95.40;;;;;;4993781;28;20063;-76
2023/08/30 05:11:51;;;;;;;0.68;0.30;;;19.90;95.20;;;;;;4993226;28;20022;-76
2023/08/30 05:14:16;;;;;;;0.38;0.30;;;19.90;94.80;;;;;;4991905;28;20037;-77
2023/08/30 05:16:42;;;;;;;1.20;0.40;;;19.80;94.70;;;;;;4992107;28;20395;-76
2023/08/30 05:19:08;;;;;;;2.72;0.60;;;19.90;95.00;;;;;;4994442;28;20026;-82
2023/08/30 05:21:33;;;;;;;1.20;0.40;;;20.00;95.10;;;;;;4991666;28;20458;-81
2023/08/30 05:23:59;;;;;;;0.82;0.40;;;20.00;94.90;;;;;;4995898;28;20042;-81
2023/08/30 05:26:25;;;;;;;0.68;0.30;;;20.00;94.90;;;;;;4996717;28;20152;-80
2023/08/30 05:28:50;;;;;;;0.90;0.47;;;20.10;95.00;;;;;;5002018;28;20096;-80
2023/08/30 05:31:16;;;;;;;1.13;0.45;;;20.10;95.00;;;;;;5000373;28;20066;-74
2023/08/30 05:33:42;;;;;;;1.13;0.60;;;20.10;94.80;;;;;;5005489;28;20034;-74
2023/08/30 05:36:07;;;;;;;1.10;0.40;;;20.10;94.60;;;;;;4990788;28;20073;-75
2023/08/30 05:38:33;;;;;;;0.63;0.40;;;20.10;94.70;;;;;;4992402;28;20402;-77
2023/08/30 05:40:59;;;;;;;1.48;0.50;;;20.10;94.70;;;;;;4995381;28;20026;-80
2023/08/30 05:43:24;;;;;;;1.75;0.80;;;20.10;94.80;;;;;;4995405;28;20026;-76
2023/08/30 05:45:50;;;;;;;3.20;0.85;;;20.10;94.80;;;;;;4975292;28;20501;-80
2023/08/30 05:48:16;;;;;;;1.02;0.60;;;20.10;94.90;;;;;;4997317;28;20030;-80
2023/08/30 05:50:41;;;;;;;1.05;0.50;;;20.10;94.90;;;;;;4994626;28;20022;-80
2023/08/30 05:53:07;;;;;;;2.90;0.70;;;20.10;94.90;;;;;;5013147;28;20386;-80
2023/08/30 05:55:33;;;;;;;0.47;0.40;;;20.20;94.70;;;;;;5000677;28;20044;-79
2023/08/30 05:57:58;;;;;;;0.90;0.38;;;20.20;94.80;;;;;;4977306;28;20034;-79
2023/08/30 06:00:25;;;;;;;2.88;0.60;;;20.20;94.70;;;;;;4994609;28;20052;-79
2023/08/30 06:02:52;;;;;;;2.33;0.50;;;20.20;94.60;;;;;;4980943;28;20104;-79
2023/08/30 06:05:18;;;;;;;3.13;0.60;;;20.20;94.60;;;;;;5015839;28;20046;-79
2023/08/30 06:07:44;;;;;;;1.02;0.40;;;20.20;94.60;;;;;;4997664;28;20023;-80
2023/08/30 06:10:10;;;;;;;1.77;0.50;;;20.20;94.40;;;;;;4998945;28;20054;-80
2023/08/30 06:12:36;;;;;;;1.20;0.32;;;20.20;94.60;;;;;;5004379;28;20061;-80
2023/08/30 06:15:01;;;;;;;1.00;0.40;;;20.20;94.50;;;;;;5014424;28;20033;-79
2023/08/30 06:17:27;;;;;;;0.98;0.38;;;20.20;94.70;;;;;;4999764;28;20037;-81
2023/08/30 06:19:53;;;;;;;0.50;0.30;;;20.20;94.70;;;;;;5016614;28;20490;-81
2023/08/30 06:22:18;;;;;;;2.88;0.68;;;20.20;94.70;;;;;;5016867;28;20052;-80
2023/08/30 06:24:44;;;;;;;2.08;0.50;;;20.30;94.80;;;;;;5010328;28;20045;-80
2023/08/30 06:27:10;;;;;;;0.50;0.40;;;20.20;94.70;;;;;;5003558;28;20034;-80
2023/08/30 06:29:36;;;;;;;2.25;0.50;;;20.30;94.90;;;;;;5009993;28;20502;-81
2023/08/30 06:32:02;;;;;;;1.60;0.50;;;20.20;94.90;;;;;;5014379;28;20041;-81
2023/08/30 06:34:29;;;;;;;1.05;0.60;;;20.20;94.70;;;;;;5008348;28;20022;-82
2023/08/30 06:36:54;;;;;;;1.92;0.65;;;20.20;94.90;;;;;;5000541;28;20478;-82
2023/08/30 06:39:20;;;;;;;1.05;0.63;;;20.20;95.00;;;;;;5002521;28;20026;-75
2023/08/30 06:41:46;;;;;;;1.15;0.55;;;20.20;94.90;;;;;;4998546;28;20462;-75
2023/08/30 06:44:11;;;;;;;1.83;0.57;;;20.20;94.90;;;;;;4996521;28;20379;-75
2023/08/30 06:46:37;;;;;;;1.90;0.70;;;20.20;95.00;;;;;;4979331;28;20081;-75
2023/08/30 06:49:05;;;;;;;2.63;1.10;;;20.20;95.10;;;;;;4998133;28;20034;-75
2023/08/30 06:51:31;;;;;;;1.92;0.65;;;20.20;95.10;;;;;;4996873;28;20105;-75
2023/08/30 06:54:00;;;;;;;1.65;0.60;;;20.20;95.20;;;;;;4995156;28;20113;-75
2023/08/30 06:56:26;;;;;;;3.53;0.75;;;20.20;95.20;;;;;;5000922;28;20469;-75
2023/08/30 06:58:52;;;;;;;3.17;0.73;;;20.20;95.30;;;;;;4995883;28;20149;-81
2023/08/30 07:01:18;;;;;;;1.58;0.57;;;20.20;95.30;;;;;;4996264;28;20022;-75
2023/08/30 07:03:44;;;;;;;0.93;0.47;;;20.30;95.40;;;;;;4995896;28;20090;-81
2023/08/30 07:06:10;;;;;;;4.22;0.73;;;20.40;95.40;;;;;;4978189;28;20046;-81
2023/08/30 07:08:35;;;;;;;3.33;0.50;;;20.40;95.00;;;;;;5006233;28;20089;-80
2023/08/30 07:11:01;;;;;;;8.32;1.20;;;20.30;94.40;;;;;;5011212;28;20025;-80
2023/08/30 07:13:27;;;;;;;3.55;0.60;;;20.20;94.50;;;;;;5008535;28;20038;-81
2023/08/30 07:15:53;;;;;;;1.23;0.70;;;20.20;94.90;;;;;;4995434;28;20517;-81
2023/08/30 07:18:19;;;;;;;2.17;0.40;;;20.10;95.00;;;;;;4994776;28;20030;-82
2023/08/30 07:20:45;;;;;;;4.38;0.85;;;20.10;95.10;;;;;;4976043;28;20424;-81
2023/08/30 07:23:11;;;;;;;2.83;0.60;;;20.20;95.40;;;;;;4977049;28;20026;-76
2023/08/30 07:25:37;;;;;;;0.60;0.50;;;20.20;95.10;;;;;;4994264;28;20026;-76
2023/08/30 07:28:04;;;;;;;4.93;0.60;;;20.10;95.30;;;;;;4992419;28;20034;-76
2023/08/30 07:30:30;;;;;;;0.80;0.40;;;20.10;95.10;;;;;;4977004;28;20026;-76
2023/08/30 07:32:57;;;;;;;1.23;0.40;;;20.10;95.20;;;;;;4995034;28;20113;-76
2023/08/30 07:35:22;;;;;;;0.60;0.45;;;20.10;95.20;;;;;;4994893;28;20033;-75
2023/08/30 07:37:48;;;;;;;3.45;0.60;;;20.10;95.00;;;;;;4996671;28;20042;-74
2023/08/30 07:40:14;;;;;;;0.47;0.30;;;20.10;94.90;;;;;;4994118;28;20153;-76
2023/08/30 07:42:40;;;;;;;1.25;0.30;;;20.10;94.50;;;;;;4997399;28;20042;-75
2023/08/30 07:45:07;;;;;;;2.53;0.50;;;20.00;94.30;;;;;;4997819;28;20061;-75
2023/08/30 07:47:33;;;;;;;3.60;0.50;;;19.90;94.20;;;;;;5000292;28;20023;-74
2023/08/30 07:49:59;;;;;;;0.65;0.30;;;19.90;94.20;;;;;;4986173;28;20041;-75
2023/08/30 07:52:24;;;;;;;1.23;0.20;;;20.00;94.20;;;;;;4997254;28;20030;-75
2023/08/30 07:54:50;;;;;;;0.68;0.30;;;20.00;94.20;;;;;;4998275;28;20474;-75
2023/08/30 07:57:15;;;;;;;1.13;0.30;;;20.00;94.10;;;;;;4997879;28;20434;-75
2023/08/30 07:59:41;;;;;;;1.50;0.40;;;20.00;93.90;;;;;;4996011;28;20034;-76
2023/08/30 08:02:07;;;;;;;0.57;0.30;;;20.00;94.10;;;;;;4998045;28;20481;-77
2023/08/30 08:04:34;;;;;;;0.50;0.30;;;20.00;94.10;;;;;;5002129;28;20037;-76
2023/08/30 08:07:00;;;;;;;0.32;0.30;;;20.00;94.20;;;;;;4996626;28;20418;-74
2023/08/30 08:09:26;;;;;;;0.47;0.20;;;20.00;94.10;;;;;;4996277;28;20109;-76
2023/08/30 08:11:52;;;;;;;2.97;0.40;;;20.00;94.20;;;;;;5002676;28;20045;-76
2023/08/30 08:14:18;;;;;;;0.43;0.30;;;20.00;94.00;;;;;;4976291;28;20766;-75
2023/08/30 08:16:43;;;;;;;0.40;0.20;;;20.00;94.10;;;;;;4998849;28;20483;-75
2023/08/30 08:19:09;;;;;;;0.63;0.20;;;20.00;94.10;;;;;;5001681;28;20031;-75
2023/08/30 08:21:35;;;;;;;0.52;0.30;;;20.00;94.00;;;;;;4995191;28;20022;-76
2023/08/30 08:24:01;;;;;;;1.17;0.55;;;19.90;94.00;;;;;;4996166;28;20066;-78
2023/08/30 08:26:27;;;;;;;0.35;0.25;;;19.90;94.10;;;;;;4996174;28;20129;-78
2023/08/30 08:28:55;;;;;;;1.00;0.30;;;19.90;94.20;;;;;;4994829;28;20798;-78
2023/08/30 08:31:24;;;;;;;1.33;0.38;;;20.00;94.20;;;;;;4985929;28;20025;-80
2023/08/30 08:34:05;;;;;;;0.08;0.08;;;20.10;94.10;;;;;;4991019;28;20037;-81
2023/08/30 08:36:31;;;;;;;0.38;0.25;;;20.20;94.30;;;;;;5000267;28;20034;-78
2023/08/30 08:38:57;;;;;;;0.20;0.20;;;20.30;93.90;;;;;;4976981;28;20046;-78
2023/08/30 08:41:28;;;;;;;1.27;0.30;;;20.40;94.10;;;;;;5001996;28;20032;-79
2023/08/30 08:43:54;;;;;;;0.20;0.20;;;20.40;93.70;;;;;;4994169;28;20117;-78
2023/08/30 08:46:21;;;;;;;0.63;0.60;;;20.50;94.10;;;;;;4986099;28;20122;-78
2023/08/30 08:48:49;;;;;;;0.40;0.20;;;20.60;94.00;;;;;;4996858;28;20034;-79
2023/08/30 08:51:15;;;;;;;0.80;0.30;;;20.70;94.10;;;;;;4993883;28;20042;-78
2023/08/30 08:53:42;;;;;;;1.05;0.40;;;20.60;93.60;;;;;;5000754;28;20034;-78
2023/08/30 08:56:09;;;;;;;1.40;0.43;;;20.70;93.80;;;;;;5000728;28;20022;-78
2023/08/30 08:58:37;;;;;;;0.52;0.32;;;20.60;93.70;;;;;;4999660;28;20093;-78
2023/08/30 09:01:05;;;;;;;2.35;0.40;;;20.80;93.70;;;;;;5001035;28;20099;-78
2023/08/30 09:03:33;;;;;;;0.45;0.35;;;20.70;93.20;;;;;;4990520;28;20031;-78
2023/08/30 09:06:00;;;;;;;0.38;0.38;;;20.70;93.60;;;;;;4987301;28;20057;-76
2023/08/30 09:08:26;;;;;;;0.38;0.28;;;20.80;93.40;;;;;;4993452;28;20027;-76
2023/08/30 09:10:52;;;;;;;2.03;0.35;;;20.80;93.10;;;;;;4993894;28;20033;-77
2023/08/30 09:13:18;;;;;;;0.35;0.30;;;20.80;92.80;;;;;;4992068;28;20026;-76
2023/08/30 09:15:44;;;;;;;0.90;0.40;;;20.70;92.70;;;;;;4993995;28;20046;-75
2023/08/30 09:18:19;;;;;;;0.20;0.15;;;20.70;92.30;;;;;;4991901;28;20065;-76
2023/08/30 09:20:45;;;;;;;0.60;0.20;;;20.70;92.60;;;;;;4993801;28;20076;-76
2023/08/30 09:23:20;;;;;;;0.90;0.38;;;20.80;92.90;;;;;;4994101;28;20054;-76
2023/08/30 09:25:47;;;;;;;0.40;0.30;;;20.90;92.80;;;;;;4992598;28;20054;-76
2023/08/30 09:28:12;;;;;;;2.05;0.28;;;20.90;92.50;;;;;;4993846;28;20034;-76
2023/08/30 09:30:40;;;;;;;0.98;0.20;;;20.90;92.70;;;;;;4992033;28;20038;-77
2023/08/30 09:33:06;;;;;;;0.82;0.32;;;21.00;92.40;;;;;;4992013;28;20080;-82
2023/08/30 09:35:32;;;;;;;1.40;0.40;;;21.10;92.70;;;;;;4993645;28;20030;-82
2023/08/30 09:37:58;;;;;;;1.17;0.30;;;21.10;92.30;;;;;;4994208;28;20117;-79
2023/08/30 09:40:23;;;;;;;1.23;0.30;;;21.20;92.00;;;;;;4993599;28;20120;-81
2023/08/30 09:42:49;;;;;;;2.75;0.40;;;21.30;92.20;;;;;;4993123;28;20037;-80
2023/08/30 09:45:33;;;;;;;0.80;0.43;;;21.40;91.40;;;;;;4994314;28;20118;-81
2023/08/30 09:48:01;;;;;;;0.60;0.40;;;21.50;91.80;;;;;;4995329;28;20509;-83
2023/08/30 09:50:29;;;;;;;1.60;0.50;;;21.50;91.20;;;;;;4977213;28;20030;-81
2023/08/30 09:52:56;;;;;;;0.30;0.30;;;21.60;91.50;;;;;;4991188;28;20121;-82
2023/08/30 09:55:22;;;;;;;1.65;0.40;;;21.60;90.90;;;;;;4995735;28;20445;-82
2023/08/30 09:57:49;;;;;;;0.60;0.30;;;21.70;90.90;;;;;;4990209;28;20026;-81
2023/08/30 10:00:15;;;;;;;0.40;0.30;;;21.70;90.80;;;;;;4986051;28;20470;-82
2023/08/30 10:02:44;;;;;;;2.65;0.20;;;21.80;91.30;;;;;;4998592;28;20130;-82
2023/08/30 10:05:12;;;;;;;0.20;0.20;;;21.80;90.70;;;;;;5001797;28;20057;-82
2023/08/30 10:07:39;;;;;;;2.63;0.30;;;21.80;90.70;;;;;;4992966;28;20044;-82
2023/08/30 10:10:05;;;;;;;0.68;0.20;;;21.90;90.80;;;;;;5000795;28;20038;-82
2023/08/30 10:12:34;;;;;;;0.82;0.50;;;21.90;91.00;;;;;;4999224;28;20074;-80
2023/08/30 10:15:00;;;;;;;0.40;0.32;;;22.00;90.90;;;;;;4992977;28;20038;-84
2023/08/30 10:17:47;;;;;;;2.72;0.50;;;22.10;90.30;;;;;;4994544;28;20065;-81
2023/08/30 10:20:14;;;;;;;1.67;0.25;;;22.20;90.50;;;;;;4960940;28;20046;-81
2023/08/30 10:22:42;;;;;;;1.08;0.40;;;22.20;90.40;;;;;;4973077;28;20034;-82
2023/08/30 10:25:16;;;;;;;0.55;0.30;;;22.20;89.80;;;;;;4996061;28;20124;-82
2023/08/30 10:27:46;;;;;;;0.35;0.28;;;22.20;90.20;;;;;;4992689;28;20056;-82
2023/08/30 10:30:14;;;;;;;0.55;0.25;;;22.20;90.10;;;;;;4994222;28;20030;-82
2023/08/30 10:32:43;;;;;;;1.85;0.20;;;22.20;90.50;;;;;;4991839;28;20045;-83
2023/08/30 10:35:13;;;;;;;2.47;0.30;;;22.30;90.30;;;;;;4992179;28;20065;-81
2023/08/30 10:37:39;;;;;;;;;;;22.30;90.00;;;;;;4976157;28;20038;-82
2023/08/30 10:40:05;;;;;;;0.47;0.35;;;22.40;88.10;;;;;;4979252;28;19917;-82
2023/08/30 10:42:32;;;;;;;0.40;0.20;;;22.40;88.70;;;;;;4988638;28;20386;-81
2023/08/30 10:45:00;;;;;;;1.48;0.20;;;22.50;88.70;;;;;;5002109;28;20657;-82
2023/08/30 10:47:35;;;;;;;0.52;0.28;;;22.50;86.60;;;;;;4996006;28;20022;-82
2023/08/30 10:50:05;;;;;;;4.90;0.77;;;22.60;86.60;;;;;;4987947;28;20030;-82
2023/08/30 10:52:31;;;;;;;0.88;0.30;;;22.60;86.50;;;;;;5000492;28;20026;-82
2023/08/30 10:55:16;;;;;;;1.20;0.20;;;22.60;86.50;;;;;;5007893;28;20462;-82
2023/08/30 10:57:43;;;;;;;0.77;0.20;;;22.60;85.10;;;;;;4996255;28;20434;-81
2023/08/30 11:00:21;;;;;;;0.30;0.20;;;22.60;85.00;;;;;;4996543;28;20042;-77
2023/08/30 11:02:49;;;;;;;1.20;0.32;;;22.60;85.40;;;;;;4995289;28;20022;-76
2023/08/30 11:05:20;;;;;;;0.10;0.10;;;22.50;82.70;;;;;;4978963;28;20050;-82
2023/08/30 11:07:46;;;;;;;0.20;0.20;;;22.60;82.80;;;;;;4978789;28;20030;-81
2023/08/30 11:10:13;;;;;;;1.08;0.10;;;22.50;82.70;;;;;;5003617;28;20034;-82
2023/08/30 11:12:44;;;;;;;0.30;0.10;;;22.40;82.80;;;;;;4995384;28;20025;-77
2023/08/30 11:15:11;;;;;;;0.22;0.10;;;22.20;84.20;;;;;;4996456;28;20026;-77
2023/08/30 11:17:37;;;;;;;0.25;0.20;;;22.00;84.10;;;;;;4978122;28;20022;-77
2023/08/30 11:20:07;;;;;;;0.35;0.10;;;22.00;84.70;;;;;;4996288;28;20118;-77
2023/08/30 11:22:40;;;;;;;0.30;0.10;;;22.10;84.00;;;;;;4996240;28;20386;-77
2023/08/30 11:25:07;;;;;;;0.80;0.10;;;22.10;83.00;;;;;;4995278;28;20039;-80
2023/08/30 11:27:33;;;;;;;0.05;0.05;;;22.10;83.30;;;;;;4989238;28;20132;-79
2023/08/30 11:30:02;;;;;;;1.20;0.22;;;22.00;82.60;;;;;;4997666;28;20096;-82
2023/08/30 11:32:31;;;;;;;0.20;0.20;;;21.90;83.40;;;;;;4978012;28;20022;-80
2023/08/30 11:35:00;;;;;;;2.22;0.20;;;21.90;84.00;;;;;;4996036;28;20303;-80
2023/08/30 11:37:27;;;;;;;0.20;0.10;;;21.90;83.90;;;;;;4995438;28;20038;-81
2023/08/30 11:39:54;;;;;;;0.50;0.28;;;22.00;84.50;;;;;;4996691;28;20049;-81
2023/08/30 11:42:22;;;;;;;0.20;0.20;;;22.10;84.90;;;;;;4979444;28;20046;-81
2023/08/30 11:44:48;;;;;;;2.08;0.20;;;22.20;84.50;;;;;;4991390;28;20080;-80
2023/08/30 11:47:24;;;;;;;0.45;0.20;;;22.30;82.90;;;;;;4998134;28;20052;-79
2023/08/30 11:49:51;;;;;;;0.10;0.03;;;22.30;82.80;;;;;;4994218;28;20455;-80
2023/08/30 11:52:18;;;;;;;0.63;0.20;;;22.40;83.80;;;;;;4995233;28;20030;-80
2023/08/30 11:54:44;;;;;;;0.22;0.17;;;22.50;82.00;;;;;;4994555;28;20029;-81
2023/08/30 11:57:11;;;;;;;2.92;0.75;;;22.60;81.20;;;;;;4995193;28;20088;-80
2023/08/30 11:59:36;;;;;;;0.25;0.20;;;22.70;81.90;;;;;;4993491;28;20026;-80
2023/08/30 12:02:03;;;;;;;0.32;0.10;;;22.80;82.20;;;;;;4993204;28;20049;-81
2023/08/30 12:04:30;;;;;;;0.20;0.20;;;23.00;82.10;;;;;;4993737;28;20033;-75
2023/08/30 12:06:56;;;;;;;0.32;0.10;;;23.10;79.10;;;;;;4992813;28;20046;-74
2023/08/30 12:09:22;;;;;;;0.80;0.17;;;23.20;81.10;;;;;;5001466;28;20077;-81
2023/08/30 12:11:51;;;;;;;0.75;0.10;;;23.20;80.10;;;;;;4999328;28;20034;-78
2023/08/30 12:14:17;;;;;;;0.00;0.00;;;23.40;80.50;;;;;;4993105;28;20026;-75
2023/08/30 12:16:43;;;;;;;0.00;0.00;;;23.50;81.20;;;;;;5013236;28;20026;-76
2023/08/30 12:19:10;;;;;;;0.20;0.00;;;23.40;77.80;;;;;;5005135;28;20026;-77
2023/08/30 12:21:47;;;;;;;0.40;0.10;;;23.40;77.20;;;;;;4992447;28;20461;-76
2023/08/30 12:24:13;;;;;;;0.10;0.05;;;23.40;77.90;;;;;;4993963;28;20489;-76
2023/08/30 12:26:38;;;;;;;0.10;0.10;;;23.30;77.30;;;;;;4992491;28;20037;-76
2023/08/30 12:29:06;;;;;;;0.00;0.00;;;23.30;78.20;;;;;;4993508;28;20772;-76
2023/08/30 12:31:32;;;;;;;0.70;0.22;;;23.40;79.00;;;;;;4993243;28;20498;-76
2023/08/30 12:33:58;;;;;;;0.20;0.10;;;23.60;79.10;;;;;;4991609;28;20402;-76
2023/08/30 12:36:24;;;;;;;2.17;0.10;;;23.60;78.60;;;;;;4991889;28;20756;-76
2023/08/30 12:38:50;;;;;;;0.90;0.00;;;23.70;77.50;;;;;;4990664;28;20030;-76
2023/08/30 12:41:16;;;;;;;1.75;0.10;;;23.80;79.30;;;;;;4992364;28;20129;-76
2023/08/30 12:43:41;;;;;;;1.75;0.00;;;23.80;77.70;;;;;;4992652;28;20037;-76
2023/08/30 12:46:07;;;;;;;0.32;0.10;;;23.80;76.60;;;;;;4992633;28;20101;-76